createdAt,value
2018-07-31T00:02:22.000Z,42.7
2018-07-31T00:12:22.000Z,42.7
2018-07-31T00:22:22.000Z,42.4
2018-07-31T00:32:22.000Z,42.8
2018-07-31T00:42:22.000Z,44.2
2018-07-31T00:52:22.000Z,45.9
2018-07-31T01:02:22.000Z,47
2018-07-31T01:12:22.000Z,47.7
2018-07-31T01:22:22.000Z,48.4
2018-07-31T01:32:22.000Z,49.4
2018-07-31T01:42:22.000Z,50.2
2018-07-31T01:52:22.000Z,50.7
2018-07-31T02:02:22.000Z,51.4
2018-07-31T02:12:22.000Z,52.4
2018-07-31T02:22:22.000Z,53.2
2018-07-31T02:32:22.000Z,53.7
2018-07-31T02:42:22.000Z,54.3
2018-07-31T02:52:22.000Z,55.2
2018-07-31T03:02:22.000Z,56.1
2018-07-31T03:12:22.000Z,56.9
2018-07-31T03:22:22.000Z,57.8
2018-07-31T03:32:22.000Z,58.2
2018-07-31T03:42:22.000Z,58.6
2018-07-31T03:52:22.000Z,59
2018-07-31T04:02:22.000Z,58.9
2018-07-31T04:12:22.000Z,59.5
2018-07-31T04:22:22.000Z,59.4
2018-07-31T04:32:22.000Z,59.6
2018-07-31T04:42:22.000Z,59.5
2018-07-31T04:52:22.000Z,59.7
2018-07-31T05:02:22.000Z,59
2018-07-31T05:12:22.000Z,58.4
2018-07-31T05:22:22.000Z,56
2018-07-31T05:32:22.000Z,54.5
2018-07-31T05:42:22.000Z,54.3
2018-07-31T05:52:22.000Z,53.4
2018-07-31T06:02:23.000Z,52.8
2018-07-31T06:12:23.000Z,51.9
2018-07-31T06:22:23.000Z,51.6
2018-07-31T06:32:23.000Z,50.3
2018-07-31T06:42:23.000Z,50.4
2018-07-31T06:52:23.000Z,50.4
2018-07-31T07:02:23.000Z,50.1
2018-07-31T07:12:23.000Z,49.9
2018-07-31T07:22:23.000Z,49.8
2018-07-31T07:32:23.000Z,49.7
2018-07-31T07:42:23.000Z,49.5
2018-07-31T07:52:23.000Z,49.2
2018-07-31T08:02:23.000Z,49.3
2018-07-31T08:12:23.000Z,49.8
2018-07-31T08:22:23.000Z,49.1
2018-07-31T08:32:23.000Z,49.7
2018-07-31T08:42:23.000Z,49.6
2018-07-31T08:52:23.000Z,49.6
2018-07-31T09:02:23.000Z,49.6
2018-07-31T09:12:24.000Z,49.5
2018-07-31T09:22:23.000Z,49.5
2018-07-31T09:32:23.000Z,49.3
2018-07-31T09:42:23.000Z,49.3
2018-07-31T09:52:23.000Z,49
2018-07-31T10:02:23.000Z,48.9
2018-07-31T10:12:23.000Z,48.6
2018-07-31T10:22:23.000Z,48.3
2018-07-31T10:32:23.000Z,47.8
2018-07-31T10:42:23.000Z,47.5
2018-07-31T10:52:23.000Z,46.9
2018-07-31T11:02:23.000Z,46.5
2018-07-31T11:12:23.000Z,46.2
2018-07-31T11:22:23.000Z,46.2
2018-07-31T11:32:23.000Z,46
2018-07-31T11:42:23.000Z,46
2018-07-31T11:52:23.000Z,46.1
2018-07-31T12:02:23.000Z,45.8
2018-07-31T12:12:23.000Z,45
2018-07-31T12:22:23.000Z,44.4
2018-07-31T12:32:23.000Z,43.6
2018-07-31T12:42:24.000Z,43.2
2018-07-31T12:52:24.000Z,43.1
2018-07-31T13:02:24.000Z,43.2
2018-07-31T13:12:24.000Z,43.2
2018-07-31T13:22:24.000Z,44.1
2018-07-31T13:32:24.000Z,45.5
2018-07-31T13:42:24.000Z,44.6
2018-07-31T13:52:24.000Z,44.1
2018-07-31T14:02:24.000Z,44.5
2018-07-31T14:12:24.000Z,45.5
2018-07-31T14:22:24.000Z,46.6
2018-07-31T14:32:24.000Z,47.3
2018-07-31T14:42:24.000Z,47.2
2018-07-31T14:52:24.000Z,47
2018-07-31T15:02:24.000Z,46.7
2018-07-31T15:12:24.000Z,46.5
2018-07-31T15:22:24.000Z,46.2
2018-07-31T15:32:24.000Z,46.1
2018-07-31T15:42:24.000Z,46.2
2018-07-31T15:52:24.000Z,45.8
2018-07-31T16:02:24.000Z,45.8
2018-07-31T16:12:24.000Z,46.7
2018-07-31T16:22:24.000Z,46.9
2018-07-31T16:32:24.000Z,45.3
2018-07-31T16:42:24.000Z,44.5
2018-07-31T16:52:24.000Z,44.9
2018-07-31T17:02:24.000Z,45.5
2018-07-31T17:12:25.000Z,45.7
2018-07-31T17:22:24.000Z,45.9
2018-07-31T17:32:24.000Z,46
2018-07-31T17:42:24.000Z,46.2
2018-07-31T17:52:24.000Z,46.2
2018-07-31T18:02:24.000Z,46.4
2018-07-31T18:12:24.000Z,46.4
2018-07-31T18:22:24.000Z,45.9
2018-07-31T18:32:24.000Z,45.4
2018-07-31T18:42:24.000Z,43.3
2018-07-31T18:52:24.000Z,43.5
2018-07-31T19:02:25.000Z,41.5
2018-07-31T19:12:25.000Z,40.9
2018-07-31T19:22:25.000Z,39.7
2018-07-31T19:32:25.000Z,39.8
2018-07-31T19:42:25.000Z,39.4
2018-07-31T19:52:25.000Z,39.3
2018-07-31T20:02:25.000Z,39.1
2018-07-31T20:12:25.000Z,38.8
2018-07-31T20:22:25.000Z,38.8
2018-07-31T20:32:25.000Z,38.8
2018-07-31T20:42:25.000Z,39.3
2018-07-31T20:52:25.000Z,39.2
2018-07-31T21:02:25.000Z,39
2018-07-31T21:12:25.000Z,39.8
2018-07-31T21:22:25.000Z,40.1
2018-07-31T21:32:25.000Z,39.9
2018-07-31T21:42:25.000Z,40.1
2018-07-31T21:52:25.000Z,40
2018-07-31T22:02:25.000Z,39.9
2018-07-31T22:12:25.000Z,40
2018-07-31T22:22:25.000Z,39.5
2018-07-31T22:32:25.000Z,39.7
2018-07-31T22:42:25.000Z,39.6
2018-07-31T22:52:25.000Z,40.1
2018-07-31T23:02:25.000Z,40
2018-07-31T23:12:25.000Z,40
2018-07-31T23:22:25.000Z,40.2
2018-07-31T23:32:25.000Z,40.4
2018-07-31T23:42:25.000Z,40.9
2018-07-31T23:52:25.000Z,41.1
